createdAt,value
2023-01-27T00:01:31.614Z,9.93
2023-01-27T00:03:59.684Z,11.82
2023-01-27T00:06:29.727Z,8.93
2023-01-27T00:08:57.635Z,8.48
2023-01-27T00:11:44.378Z,11.60
2023-01-27T00:14:12.346Z,10.07
2023-01-27T00:16:41.773Z,9.73
2023-01-27T00:19:09.737Z,9.10
2023-01-27T00:21:58.062Z,7.72
2023-01-27T00:24:38.276Z,8.48
2023-01-27T00:27:11.169Z,8.00
2023-01-27T00:29:41.064Z,8.43
2023-01-27T00:32:29.100Z,8.48
2023-01-27T00:34:57.582Z,8.25
2023-01-27T00:37:26.848Z,9.18
2023-01-27T00:39:54.873Z,8.52
2023-01-27T00:42:23.294Z,9.23
2023-01-27T00:45:09.739Z,8.88
2023-01-27T00:47:38.134Z,8.77
2023-01-27T00:50:06.755Z,9.25
2023-01-27T00:52:34.971Z,9.55
2023-01-27T00:55:02.910Z,8.48
2023-01-27T00:57:50.038Z,9.35
2023-01-27T01:00:18.189Z,9.63
2023-01-27T01:02:46.484Z,8.23
2023-01-27T01:05:14.716Z,8.27
2023-01-27T01:07:42.971Z,9.77
2023-01-27T01:10:12.160Z,9.60
2023-01-27T01:12:40.525Z,8.88
2023-01-27T01:15:09.003Z,9.55
2023-01-27T01:17:37.235Z,8.10
2023-01-27T01:20:05.552Z,7.97
2023-01-27T01:22:33.856Z,8.43
2023-01-27T01:25:02.355Z,9.40
2023-01-27T01:27:31.030Z,9.38
2023-01-27T01:29:59.000Z,9.18
2023-01-27T01:32:28.414Z,8.50
2023-01-27T01:34:56.434Z,8.27
2023-01-27T01:37:25.696Z,9.93
2023-01-27T01:39:53.612Z,7.88
2023-01-27T01:42:21.904Z,9.27
2023-01-27T01:45:12.288Z,8.32
2023-01-27T01:47:40.544Z,7.72
2023-01-27T01:50:08.834Z,8.85
2023-01-27T01:52:37.362Z,7.85
2023-01-27T01:55:05.555Z,8.25
2023-01-27T01:57:37.868Z,8.15
2023-01-27T02:00:08.076Z,9.10
2023-01-27T02:02:43.686Z,9.30
2023-01-27T02:05:19.655Z,7.93
2023-01-27T02:08:03.244Z,8.88
2023-01-27T02:10:33.588Z,9.03
2023-01-27T02:13:02.590Z,7.80
2023-01-27T02:15:31.811Z,8.57
2023-01-27T02:18:02.018Z,8.65
2023-01-27T02:20:41.547Z,9.82
2023-01-27T02:23:09.735Z,8.98
2023-01-27T02:26:06.882Z,9.30
2023-01-27T02:28:35.307Z,9.20
2023-01-27T02:31:03.428Z,8.38
2023-01-27T02:33:33.042Z,9.60
2023-01-27T02:36:10.007Z,8.98
2023-01-27T02:38:46.495Z,9.32
2023-01-27T02:41:30.029Z,9.20
2023-01-27T02:43:58.638Z,9.52
2023-01-27T02:46:27.030Z,10.23
2023-01-27T02:48:55.416Z,9.95
2023-01-27T02:51:23.989Z,10.35
2023-01-27T02:53:52.447Z,10.20
2023-01-27T02:56:21.625Z,10.02
2023-01-27T02:58:49.915Z,10.18
2023-01-27T03:01:25.568Z,11.18
2023-01-27T03:03:54.877Z,11.52
2023-01-27T03:06:22.757Z,9.77
2023-01-27T03:08:51.134Z,9.93
2023-01-27T03:11:39.294Z,10.90
2023-01-27T03:14:09.252Z,10.13
2023-01-27T03:16:56.161Z,10.40
2023-01-27T03:19:24.514Z,9.77
2023-01-27T03:21:53.942Z,9.88
2023-01-27T03:24:23.406Z,9.75
2023-01-27T03:26:53.535Z,9.52
2023-01-27T03:29:47.264Z,10.93
2023-01-27T03:32:15.417Z,9.23
2023-01-27T03:34:58.134Z,8.90
2023-01-27T03:37:51.445Z,9.35
2023-01-27T03:40:38.494Z,10.52
2023-01-27T03:43:24.765Z,10.18
2023-01-27T03:46:12.806Z,10.57
2023-01-27T03:48:40.778Z,9.88
2023-01-27T03:51:10.564Z,10.35
2023-01-27T03:53:38.775Z,10.85
2023-01-27T03:56:08.295Z,10.25
2023-01-27T03:58:37.916Z,9.10
2023-01-27T04:01:12.705Z,10.40
2023-01-27T04:04:00.157Z,10.55
2023-01-27T04:06:52.343Z,9.23
2023-01-27T04:09:32.012Z,9.68
2023-01-27T04:12:05.575Z,9.23
2023-01-27T04:14:36.015Z,9.38
2023-01-27T04:17:12.874Z,9.07
2023-01-27T04:19:41.205Z,9.23
2023-01-27T04:22:11.935Z,9.05
2023-01-27T04:24:40.214Z,8.73
2023-01-27T04:27:11.394Z,8.52
2023-01-27T04:29:41.439Z,8.60
2023-01-27T04:32:13.208Z,9.02
2023-01-27T04:34:42.890Z,7.47
2023-01-27T04:37:11.373Z,9.70
2023-01-27T04:39:39.304Z,7.80
2023-01-27T04:42:07.565Z,8.43
2023-01-27T04:44:35.504Z,7.75
2023-01-27T04:47:03.825Z,7.95
2023-01-27T04:49:31.782Z,7.90
2023-01-27T04:51:59.983Z,8.45
2023-01-27T04:54:27.833Z,7.78
2023-01-27T04:57:03.960Z,8.30
2023-01-27T04:59:31.956Z,7.20
2023-01-27T05:02:00.306Z,6.88
2023-01-27T05:04:28.344Z,7.82
2023-01-27T05:06:56.720Z,6.70
2023-01-27T05:09:24.793Z,7.38
2023-01-27T05:11:54.269Z,8.23
2023-01-27T05:14:23.870Z,7.50
2023-01-27T05:16:52.352Z,7.80
2023-01-27T05:19:20.366Z,7.47
2023-01-27T05:21:48.708Z,7.97
2023-01-27T05:24:16.754Z,7.40
2023-01-27T05:26:45.168Z,7.63
2023-01-27T05:29:13.259Z,8.15
2023-01-27T05:31:41.643Z,7.57
2023-01-27T05:34:10.068Z,6.97
2023-01-27T05:36:52.860Z,6.87
2023-01-27T05:39:21.226Z,8.13
2023-01-27T05:41:49.427Z,8.52
2023-01-27T05:44:18.744Z,8.25
2023-01-27T05:46:46.653Z,7.80
2023-01-27T05:49:15.967Z,8.25
2023-01-27T05:51:43.995Z,7.07
2023-01-27T05:54:12.256Z,6.90
2023-01-27T05:56:40.923Z,8.05
2023-01-27T05:59:11.258Z,8.25
2023-01-27T06:01:39.922Z,7.15
2023-01-27T06:04:09.608Z,7.78
2023-01-27T06:06:37.605Z,7.63
2023-01-27T06:09:06.464Z,7.82
2023-01-27T06:11:34.522Z,7.53
2023-01-27T06:14:02.874Z,7.45
2023-01-27T06:16:30.975Z,7.18
2023-01-27T06:19:00.042Z,6.75
2023-01-27T06:21:28.125Z,7.82
2023-01-27T06:23:58.411Z,7.28
2023-01-27T06:26:26.729Z,8.38
2023-01-27T06:28:58.133Z,7.20
2023-01-27T06:31:28.631Z,6.83
2023-01-27T06:33:56.986Z,6.40
2023-01-27T06:36:25.275Z,6.70
2023-01-27T06:38:53.373Z,7.60
2023-01-27T06:41:21.829Z,7.45
2023-01-27T06:43:49.845Z,6.88
2023-01-27T06:46:18.224Z,7.85
2023-01-27T06:48:46.235Z,6.85
2023-01-27T06:51:15.920Z,6.85
2023-01-27T06:53:43.920Z,6.65
2023-01-27T06:56:12.282Z,6.32
2023-01-27T06:58:40.987Z,7.70
2023-01-27T07:01:09.276Z,6.78
2023-01-27T07:03:37.256Z,7.63
2023-01-27T07:06:06.940Z,7.38
2023-01-27T07:08:34.954Z,6.20
2023-01-27T07:11:05.188Z,7.15
2023-01-27T07:13:33.342Z,7.47
2023-01-27T07:16:01.793Z,6.82
2023-01-27T07:18:30.081Z,7.00
2023-01-27T07:20:58.509Z,6.57
2023-01-27T07:23:26.452Z,7.75
2023-01-27T07:25:54.808Z,6.95
2023-01-27T07:28:22.819Z,7.20
2023-01-27T07:30:51.212Z,6.90
2023-01-27T07:33:19.265Z,7.47
2023-01-27T07:35:50.751Z,6.95
2023-01-27T07:38:19.022Z,7.03
2023-01-27T07:40:47.349Z,6.50
2023-01-27T07:43:15.397Z,7.25
2023-01-27T07:45:49.131Z,7.80
2023-01-27T07:48:17.101Z,7.75
2023-01-27T07:50:45.529Z,7.40
2023-01-27T07:53:13.731Z,8.05
2023-01-27T07:55:42.226Z,7.95
2023-01-27T07:58:10.355Z,7.38
2023-01-27T08:00:40.161Z,7.80
2023-01-27T08:03:08.286Z,8.13
2023-01-27T08:05:38.593Z,7.55
2023-01-27T08:08:06.766Z,7.05
2023-01-27T08:10:35.036Z,7.65
2023-01-27T08:13:03.057Z,8.48
2023-01-27T08:15:32.188Z,8.18
2023-01-27T08:18:00.284Z,7.35
2023-01-27T08:20:28.924Z,7.93
2023-01-27T08:22:57.180Z,7.68
2023-01-27T08:25:26.013Z,6.88
2023-01-27T08:27:56.589Z,7.95
2023-01-27T08:30:25.444Z,6.90
2023-01-27T08:32:54.395Z,7.10
2023-01-27T08:35:22.698Z,7.18
2023-01-27T08:37:51.898Z,6.22
2023-01-27T08:40:20.842Z,7.28
2023-01-27T08:42:51.230Z,7.20
2023-01-27T08:45:20.577Z,7.43
2023-01-27T08:47:48.495Z,7.32
2023-01-27T08:50:16.963Z,7.00
2023-01-27T08:52:45.357Z,6.57
2023-01-27T08:55:15.673Z,7.22
2023-01-27T08:57:43.903Z,5.97
2023-01-27T09:00:13.819Z,7.43
2023-01-27T09:02:42.159Z,8.05
2023-01-27T09:05:10.533Z,7.13
2023-01-27T09:07:38.483Z,6.45
2023-01-27T09:10:14.635Z,8.02
2023-01-27T09:12:45.144Z,7.30
2023-01-27T09:15:14.568Z,8.48
2023-01-27T09:17:42.819Z,7.40
2023-01-27T09:20:12.471Z,8.63
2023-01-27T09:22:41.901Z,7.00
2023-01-27T09:25:15.979Z,7.90
2023-01-27T09:27:44.694Z,7.65
2023-01-27T09:30:14.766Z,8.38
2023-01-27T09:32:43.172Z,14.68
2023-01-27T09:35:11.902Z,13.40
2023-01-27T09:37:50.229Z,9.55
2023-01-27T09:40:28.867Z,7.85
2023-01-27T09:43:04.804Z,7.45
2023-01-27T09:45:51.550Z,7.47
2023-01-27T09:48:34.303Z,7.47
2023-01-27T09:51:20.295Z,8.68
2023-01-27T09:54:19.695Z,7.18
2023-01-27T09:56:56.652Z,9.90
2023-01-27T09:59:52.277Z,8.30
2023-01-27T10:02:44.795Z,8.65
2023-01-27T10:05:53.092Z,9.20
2023-01-27T10:08:23.924Z,8.60
2023-01-27T10:11:12.722Z,7.88
2023-01-27T10:14:02.372Z,7.95
2023-01-27T10:16:33.266Z,7.72
2023-01-27T10:19:13.248Z,7.10
2023-01-27T10:21:55.101Z,7.22
2023-01-27T10:24:39.566Z,7.18
2023-01-27T10:30:12.940Z,6.60
2023-01-27T10:33:12.848Z,6.45
2023-01-27T10:35:50.795Z,5.60
2023-01-27T10:38:36.316Z,5.93
2023-01-27T10:41:16.673Z,6.78
2023-01-27T10:43:44.571Z,6.30
2023-01-27T10:46:41.614Z,6.50
2023-01-27T10:49:32.614Z,5.95
2023-01-27T10:52:17.282Z,6.65
2023-01-27T10:55:01.062Z,6.15
2023-01-27T11:00:49.213Z,6.30
2023-01-27T11:03:15.178Z,6.20
2023-01-27T11:06:06.421Z,6.28
2023-01-27T11:08:39.912Z,6.72
2023-01-27T11:11:29.314Z,6.95
2023-01-27T11:14:16.522Z,7.13
2023-01-27T11:16:52.091Z,5.72
2023-01-27T11:19:33.154Z,5.85
2023-01-27T11:22:08.908Z,6.57
2023-01-27T11:24:47.466Z,7.20
2023-01-27T11:27:18.172Z,6.82
2023-01-27T11:29:54.296Z,6.13
2023-01-27T11:32:48.882Z,6.43
2023-01-27T11:35:17.426Z,5.60
2023-01-27T11:37:50.784Z,6.65
2023-01-27T11:40:37.982Z,6.40
2023-01-27T11:43:05.970Z,6.55
2023-01-27T11:45:36.672Z,6.13
2023-01-27T11:48:12.556Z,6.78
2023-01-27T11:50:42.587Z,7.22
2023-01-27T11:53:17.614Z,6.53
2023-01-27T11:56:01.030Z,7.22
2023-01-27T11:59:18.135Z,7.50
2023-01-27T12:02:03.231Z,5.93
2023-01-27T12:04:50.129Z,6.88
2023-01-27T12:07:34.465Z,10.00
2023-01-27T12:10:04.064Z,7.63
2023-01-27T12:12:37.476Z,6.40
2023-01-27T12:15:05.884Z,6.55
2023-01-27T12:17:54.596Z,6.43
2023-01-27T12:20:22.473Z,7.93
2023-01-27T12:22:54.594Z,7.05
2023-01-27T12:25:28.230Z,7.93
2023-01-27T12:28:04.228Z,7.07
2023-01-27T12:30:35.101Z,7.65
2023-01-27T12:33:13.513Z,7.03
2023-01-27T12:35:48.302Z,8.25
2023-01-27T12:38:22.461Z,7.22
2023-01-27T12:41:01.265Z,7.90
2023-01-27T12:43:29.702Z,7.03
2023-01-27T12:46:25.968Z,7.50
2023-01-27T12:49:09.827Z,7.95
2023-01-27T12:51:51.417Z,8.30
2023-01-27T12:54:28.550Z,6.97
2023-01-27T12:57:06.030Z,8.05
2023-01-27T12:59:35.854Z,6.97
2023-01-27T13:02:25.424Z,8.57
2023-01-27T13:05:03.830Z,8.13
2023-01-27T13:07:53.650Z,8.30
2023-01-27T13:10:28.064Z,8.60
2023-01-27T13:12:59.530Z,7.82
2023-01-27T13:15:31.401Z,7.65
2023-01-27T13:18:01.446Z,7.60
2023-01-27T13:20:49.999Z,7.68
2023-01-27T13:23:28.126Z,7.80
2023-01-27T13:26:05.495Z,8.20
2023-01-27T13:28:52.099Z,8.50
2023-01-27T13:31:49.248Z,8.35
2023-01-27T13:34:27.343Z,8.30
2023-01-27T13:37:09.607Z,7.65
2023-01-27T13:40:14.933Z,8.38
2023-01-27T13:43:03.080Z,7.55
2023-01-27T13:45:53.564Z,8.05
2023-01-27T13:48:51.313Z,8.75
2023-01-27T13:51:30.442Z,8.93
2023-01-27T13:54:02.437Z,8.30
2023-01-27T13:56:49.843Z,8.23
2023-01-27T13:59:42.023Z,8.52
2023-01-27T14:02:31.242Z,8.80
2023-01-27T14:05:11.448Z,8.75
2023-01-27T14:07:53.936Z,9.25
2023-01-27T14:10:32.653Z,8.98
2023-01-27T14:13:26.892Z,9.13
2023-01-27T14:16:25.456Z,9.38
2023-01-27T14:19:07.392Z,9.85
2023-01-27T14:24:41.525Z,8.88
2023-01-27T14:27:32.258Z,9.40
2023-01-27T14:30:07.898Z,8.98
2023-01-27T14:32:55.887Z,9.65
2023-01-27T14:35:29.382Z,9.48
2023-01-27T14:38:10.102Z,9.95
2023-01-27T14:41:17.264Z,9.32
2023-01-27T14:43:51.986Z,9.82
2023-01-27T14:46:29.590Z,8.82
2023-01-27T14:49:17.035Z,9.55
2023-01-27T14:51:50.993Z,9.70
2023-01-27T14:54:36.103Z,9.45
2023-01-27T14:57:36.168Z,9.80
2023-01-27T15:00:36.106Z,9.27
2023-01-27T15:03:22.134Z,9.27
2023-01-27T15:05:53.024Z,8.75
2023-01-27T15:08:55.194Z,9.93
2023-01-27T15:11:52.153Z,9.73
2023-01-27T15:14:37.967Z,9.07
2023-01-27T15:17:27.901Z,9.88
2023-01-27T15:20:06.647Z,10.52
2023-01-27T15:22:54.891Z,10.48
2023-01-27T15:25:33.464Z,8.98
2023-01-27T15:28:03.192Z,9.25
2023-01-27T15:30:38.264Z,9.18
2023-01-27T15:33:48.263Z,9.05
2023-01-27T15:36:19.848Z,9.35
2023-01-27T15:39:11.365Z,9.90
2023-01-27T15:41:54.545Z,11.25
2023-01-27T15:44:32.902Z,10.40
2023-01-27T15:47:26.743Z,10.38
2023-01-27T15:50:19.345Z,9.15
2023-01-27T15:52:49.464Z,10.63
2023-01-27T15:55:31.785Z,9.57
2023-01-27T15:58:15.139Z,10.23
2023-01-27T16:00:52.698Z,10.38
2023-01-27T16:03:45.096Z,10.57
2023-01-27T16:06:16.483Z,9.98
2023-01-27T16:08:52.618Z,11.02
2023-01-27T16:11:26.759Z,11.75
2023-01-27T16:16:48.540Z,11.05
2023-01-27T16:19:39.220Z,11.27
2023-01-27T16:22:14.559Z,9.85
2023-01-27T16:25:11.764Z,10.20
2023-01-27T16:28:04.544Z,10.15
2023-01-27T16:30:40.255Z,11.75
2023-01-27T16:33:48.647Z,12.68
2023-01-27T16:36:36.702Z,10.30
2023-01-27T16:39:32.135Z,11.27
2023-01-27T16:42:00.453Z,12.07
2023-01-27T16:44:48.895Z,10.48
2023-01-27T16:47:36.797Z,11.45
2023-01-27T16:50:05.658Z,10.98
2023-01-27T16:52:42.203Z,11.45
2023-01-27T16:55:22.565Z,12.35
2023-01-27T16:57:51.895Z,12.50
2023-01-27T17:00:24.164Z,13.13
2023-01-27T17:02:53.953Z,14.45
2023-01-27T17:05:22.989Z,13.25
2023-01-27T17:08:16.714Z,13.75
2023-01-27T17:13:34.572Z,14.27
2023-01-27T17:16:06.512Z,13.00
2023-01-27T17:18:51.755Z,13.20
2023-01-27T17:21:38.567Z,13.75
2023-01-27T17:24:11.638Z,17.13
2023-01-27T17:26:44.354Z,22.17
2023-01-27T17:29:21.419Z,26.23
2023-01-27T17:31:50.259Z,23.50
2023-01-27T17:34:21.173Z,22.27
2023-01-27T17:37:18.268Z,21.20
2023-01-27T17:39:47.762Z,20.00
2023-01-27T17:42:18.717Z,18.15
2023-01-27T17:44:47.905Z,18.27
2023-01-27T17:47:20.508Z,17.27
2023-01-27T17:49:50.854Z,15.88
2023-01-27T17:52:25.039Z,16.52
2023-01-27T17:57:32.891Z,15.90
2023-01-27T18:00:11.766Z,14.80
2023-01-27T18:02:55.419Z,15.90
2023-01-27T18:05:29.219Z,14.68
2023-01-27T18:07:57.542Z,13.90
2023-01-27T18:10:34.149Z,15.45
2023-01-27T18:13:20.381Z,13.93
2023-01-27T18:15:59.510Z,16.10
2023-01-27T18:18:33.660Z,14.60
2023-01-27T18:23:32.765Z,12.13
2023-01-27T18:26:17.111Z,14.50
2023-01-27T18:28:49.074Z,23.25
2023-01-27T18:31:25.430Z,18.83
2023-01-27T18:34:02.448Z,17.27
2023-01-27T18:36:36.410Z,14.55
2023-01-27T18:39:27.536Z,16.15
2023-01-27T18:41:55.886Z,16.80
2023-01-27T18:44:34.624Z,17.48
2023-01-27T18:47:17.942Z,14.77
2023-01-27T18:49:53.608Z,15.68
2023-01-27T18:52:22.149Z,14.95
2023-01-27T18:54:55.641Z,14.40
2023-01-27T18:57:23.579Z,14.88
2023-01-27T18:59:53.041Z,14.63
2023-01-27T19:02:21.198Z,15.52
2023-01-27T19:04:50.994Z,15.50
2023-01-27T19:07:19.763Z,14.65
2023-01-27T19:09:49.242Z,15.27
2023-01-27T19:12:17.209Z,17.73
2023-01-27T19:14:48.183Z,17.13
2023-01-27T19:17:20.167Z,15.60
2023-01-27T19:19:49.896Z,16.48
2023-01-27T19:22:20.174Z,16.35
2023-01-27T19:24:50.696Z,17.80
2023-01-27T19:27:19.617Z,18.67
2023-01-27T19:29:48.409Z,18.60
2023-01-27T19:32:16.440Z,20.02
2023-01-27T19:34:44.812Z,17.42
2023-01-27T19:37:18.971Z,17.83
2023-01-27T19:39:49.203Z,18.42
2023-01-27T19:42:17.303Z,16.00
2023-01-27T19:44:45.835Z,23.70
2023-01-27T19:47:14.044Z,21.35
2023-01-27T19:49:42.509Z,25.08
2023-01-27T19:52:10.510Z,26.98
2023-01-27T19:54:38.692Z,26.92
2023-01-27T19:57:10.353Z,25.63
2023-01-27T19:59:38.634Z,25.40
2023-01-27T20:02:06.541Z,27.48
2023-01-27T20:04:34.777Z,23.65
2023-01-27T20:07:02.758Z,22.60
2023-01-27T20:09:31.045Z,24.83
2023-01-27T20:11:58.971Z,21.98
2023-01-27T20:14:27.329Z,19.25
2023-01-27T20:16:55.355Z,19.45
2023-01-27T20:19:23.865Z,20.17
2023-01-27T20:21:51.965Z,19.23
2023-01-27T20:24:20.674Z,17.45
2023-01-27T20:26:49.837Z,17.55
2023-01-27T20:29:19.948Z,17.15
2023-01-27T20:31:50.504Z,17.40
2023-01-27T20:34:19.026Z,18.60
2023-01-27T20:36:47.765Z,18.58
2023-01-27T20:39:16.224Z,20.90
2023-01-27T20:41:44.956Z,20.83
2023-01-27T20:44:14.032Z,19.20
2023-01-27T20:46:42.943Z,19.77
2023-01-27T20:49:12.408Z,18.92
2023-01-27T20:51:41.354Z,18.92
2023-01-27T20:54:13.213Z,20.23
2023-01-27T20:56:45.043Z,21.48
2023-01-27T20:59:15.454Z,19.35
2023-01-27T21:01:45.464Z,20.20
2023-01-27T21:04:13.846Z,22.35
2023-01-27T21:06:41.859Z,22.65
2023-01-27T21:09:10.194Z,22.33
2023-01-27T21:11:38.179Z,23.98
2023-01-27T21:14:06.535Z,23.67
2023-01-27T21:16:35.320Z,23.77
2023-01-27T21:19:03.852Z,22.45
2023-01-27T21:21:31.855Z,22.50
2023-01-27T21:24:00.584Z,24.65
2023-01-27T21:26:29.347Z,23.90
2023-01-27T21:28:57.652Z,24.60
2023-01-27T21:31:30.530Z,23.55
2023-01-27T21:34:01.923Z,23.85
2023-01-27T21:36:29.941Z,22.15
2023-01-27T21:38:58.454Z,23.73
2023-01-27T21:41:44.920Z,22.10
2023-01-27T21:44:39.008Z,23.00
2023-01-27T21:47:09.750Z,22.85
2023-01-27T21:49:59.909Z,21.88
2023-01-27T21:52:45.978Z,22.35
2023-01-27T21:55:20.399Z,22.23
2023-01-27T21:57:51.082Z,22.08
2023-01-27T22:00:22.954Z,21.90
2023-01-27T22:02:59.012Z,22.83
2023-01-27T22:05:28.968Z,22.77
2023-01-27T22:07:57.291Z,24.67
2023-01-27T22:10:27.919Z,22.73
2023-01-27T22:13:01.645Z,23.48
2023-01-27T22:15:30.818Z,21.20
2023-01-27T22:17:59.415Z,22.30
2023-01-27T22:20:28.446Z,22.38
2023-01-27T22:22:56.560Z,21.05
2023-01-27T22:25:27.561Z,20.90
2023-01-27T22:27:56.366Z,21.25
2023-01-27T22:30:24.766Z,21.70
2023-01-27T22:32:52.721Z,21.55
2023-01-27T22:35:22.333Z,21.92
2023-01-27T22:37:50.413Z,19.48
2023-01-27T22:40:19.215Z,20.08
2023-01-27T22:42:49.044Z,23.25
2023-01-27T22:45:18.234Z,19.67
2023-01-27T22:47:46.629Z,20.27
2023-01-27T22:50:15.199Z,19.55
2023-01-27T22:52:43.059Z,19.23
2023-01-27T22:55:13.318Z,20.50
2023-01-27T22:57:41.566Z,19.55
2023-01-27T23:00:11.479Z,19.23
2023-01-27T23:02:39.643Z,16.83
2023-01-27T23:05:08.404Z,18.33
2023-01-27T23:07:36.334Z,19.25
2023-01-27T23:10:05.075Z,16.23
2023-01-27T23:12:33.129Z,16.90
2023-01-27T23:15:02.830Z,18.05
2023-01-27T23:17:30.897Z,17.90
2023-01-27T23:19:59.166Z,15.35
2023-01-27T23:22:27.273Z,15.40
2023-01-27T23:24:55.498Z,14.63
2023-01-27T23:27:23.520Z,14.60
2023-01-27T23:29:51.818Z,17.35
2023-01-27T23:32:19.731Z,16.25
2023-01-27T23:34:48.484Z,17.05
2023-01-27T23:37:17.014Z,16.08
2023-01-27T23:39:48.883Z,17.02
2023-01-27T23:42:18.301Z,16.25
2023-01-27T23:44:47.457Z,15.40
2023-01-27T23:47:15.972Z,15.25
2023-01-27T23:49:44.224Z,15.20
2023-01-27T23:52:12.362Z,15.45
2023-01-27T23:54:41.730Z,18.25
2023-01-27T23:57:09.731Z,16.45
2023-01-27T23:59:38.089Z,15.52
